Time;durP1;ratioP1;P1;durP2;ratioP2;P2;SDS_P1;SDS_P2;PMS_P1;PMS_P2;Temp;Humidity;BMP_temperature;BMP_pressure;BME280_temperature;BME280_humidity;BME280_pressure;Samples;Min_cycle;Max_cycle;Signal;HPM_P1;HPM_P2
2021/01/11 00:01:42;;;;;;;7.95;6.30;;;4.10;99.90;;;;;;5027627;28;20367;-87
2021/01/11 00:04:09;;;;;;;7.32;6.47;;;4.10;99.90;;;;;;5033684;28;20048;-87
2021/01/11 00:06:45;;;;;;;6.43;5.70;;;4.10;99.90;;;;;;5034994;28;20437;-88
2021/01/11 00:09:11;;;;;;;6.93;5.90;;;4.20;99.90;;;;;;5050317;28;20388;-87
2021/01/11 00:11:39;;;;;;;6.35;5.53;;;4.20;99.90;;;;;;5035560;28;20041;-87
2021/01/11 00:14:06;;;;;;;7.47;6.47;;;4.20;99.90;;;;;;5032958;28;20041;-87
2021/01/11 00:16:32;;;;;;;7.70;6.07;;;4.20;99.90;;;;;;5035028;28;20048;-87
2021/01/11 00:19:00;;;;;;;8.20;6.28;;;4.20;99.90;;;;;;5022855;28;20053;-87
2021/01/11 00:21:27;;;;;;;7.40;5.72;;;4.20;99.90;;;;;;5025600;28;20076;-87
2021/01/11 00:23:54;;;;;;;6.03;5.43;;;4.30;99.90;;;;;;5044858;28;20526;-87
2021/01/11 00:26:21;;;;;;;5.07;4.53;;;4.30;99.90;;;;;;5025847;28;20557;-87
2021/01/11 00:28:48;;;;;;;6.68;5.60;;;4.30;99.90;;;;;;5026466;28;20052;-87
2021/01/11 00:31:24;;;;;;;6.15;5.53;;;4.30;99.90;;;;;;5023019;28;20060;-86
2021/01/11 00:33:52;;;;;;;7.78;5.53;;;4.30;99.90;;;;;;5025631;28;20068;-87
2021/01/11 00:36:20;;;;;;;6.80;5.45;;;4.40;99.90;;;;;;5057583;28;20482;-86
2021/01/11 00:38:47;;;;;;;6.63;5.37;;;4.40;99.90;;;;;;5063282;28;20053;-87
2021/01/11 00:41:21;;;;;;;6.95;5.63;;;4.40;99.90;;;;;;5033429;28;20041;-87
2021/01/11 00:43:49;;;;;;;6.13;5.35;;;4.40;99.90;;;;;;5028467;28;20495;-87
2021/01/11 00:46:23;;;;;;;6.63;5.93;;;4.50;99.90;;;;;;5035765;28;20052;-87
2021/01/11 00:48:50;;;;;;;6.47;5.80;;;4.40;99.90;;;;;;5039957;28;20055;-87
2021/01/11 00:51:17;;;;;;;7.75;6.63;;;4.40;99.90;;;;;;5037525;28;20049;-87
2021/01/11 00:53:46;;;;;;;7.35;6.35;;;4.50;99.90;;;;;;5036866;28;20052;-87
2021/01/11 00:56:16;;;;;;;;;;;4.50;99.90;;;;;;5036994;28;20107;-87
2021/01/11 00:58:43;;;;;;;7.53;6.30;;;4.40;99.90;;;;;;5032085;28;19947;-87
2021/01/11 01:01:10;;;;;;;7.22;6.35;;;4.40;99.90;;;;;;5037133;28;20429;-87
2021/01/11 01:03:39;;;;;;;7.40;5.90;;;4.40;99.90;;;;;;5037503;28;20056;-87
2021/01/11 01:06:07;;;;;;;7.80;6.82;;;4.40;99.90;;;;;;5032163;28;20049;-87
2021/01/11 01:08:34;;;;;;;6.78;6.07;;;4.40;99.90;;;;;;5027663;28;20480;-87
2021/01/11 01:11:01;;;;;;;7.10;6.25;;;4.40;99.90;;;;;;5024921;28;20041;-87
2021/01/11 01:13:27;;;;;;;7.70;5.93;;;4.40;99.90;;;;;;5021232;28;20045;-87
2021/01/11 01:15:54;;;;;;;6.15;5.55;;;4.40;99.90;;;;;;5023382;28;20052;-87
2021/01/11 01:18:20;;;;;;;6.72;6.03;;;4.40;99.90;;;;;;5024943;28;20052;-87
2021/01/11 01:20:47;;;;;;;7.90;6.63;;;4.50;99.90;;;;;;5025865;28;20053;-87
2021/01/11 01:23:14;;;;;;;7.80;5.78;;;4.50;99.90;;;;;;5025088;28;20367;-87
2021/01/11 01:25:40;;;;;;;7.13;6.05;;;4.50;99.90;;;;;;5045470;28;20332;-87
2021/01/11 01:28:07;;;;;;;6.78;5.75;;;4.50;99.90;;;;;;5026656;28;20053;-86
2021/01/11 01:30:34;;;;;;;8.30;5.60;;;4.50;99.90;;;;;;5062886;28;20041;-87
2021/01/11 01:33:01;;;;;;;6.90;6.20;;;4.60;99.90;;;;;;5022507;28;20048;-87
2021/01/11 01:35:29;;;;;;;7.00;6.25;;;4.60;99.90;;;;;;5051571;28;20434;-87
2021/01/11 01:37:57;;;;;;;6.22;5.60;;;4.60;99.90;;;;;;5027216;28;20108;-87
2021/01/11 01:40:24;;;;;;;6.50;5.20;;;4.50;99.90;;;;;;5034677;28;20041;-87
2021/01/11 01:42:52;;;;;;;7.07;5.27;;;4.60;99.90;;;;;;5037069;28;20052;-87
2021/01/11 01:45:19;;;;;;;7.15;5.95;;;4.60;99.90;;;;;;5069202;28;20051;-87
2021/01/11 01:47:47;;;;;;;5.60;4.93;;;4.60;99.90;;;;;;5035311;28;20497;-87
2021/01/11 01:50:14;;;;;;;5.93;5.32;;;4.60;99.90;;;;;;5037088;28;20438;-87
2021/01/11 01:52:43;;;;;;;6.47;5.78;;;4.60;99.90;;;;;;5019082;28;20049;-87
2021/01/11 01:55:10;;;;;;;;;;;4.60;99.90;;;;;;5036391;28;20064;-87
2021/01/11 01:57:36;;;;;;;4.43;4.03;;;4.60;99.90;;;;;;5035846;28;20346;-87
2021/01/11 02:00:05;;;;;;;4.72;4.22;;;4.60;99.90;;;;;;5025996;28;20053;-87
2021/01/11 02:02:32;;;;;;;;;;;4.60;99.90;;;;;;5030417;28;20119;-87
2021/01/11 02:04:58;;;;;;;6.18;4.50;;;4.60;99.90;;;;;;5023857;28;19920;-87
2021/01/11 02:07:36;;;;;;;5.88;5.18;;;4.60;99.90;;;;;;5022745;28;20499;-86
2021/01/11 02:10:30;;;;;;;5.88;5.07;;;4.60;99.90;;;;;;5051698;28;20068;-87
2021/01/11 02:13:17;;;;;;;7.32;5.20;;;4.60;99.90;;;;;;5050799;28;20076;-87
2021/01/11 02:15:56;;;;;;;6.07;5.20;;;4.60;99.90;;;;;;5043917;28;20417;-87
2021/01/11 02:19:04;;;;;;;5.90;5.25;;;4.60;99.90;;;;;;5052837;28;20064;-87
2021/01/11 02:22:08;;;;;;;5.57;5.07;;;4.60;99.90;;;;;;5036133;28;20478;-87
2021/01/11 02:25:05;;;;;;;7.97;5.68;;;4.50;99.90;;;;;;5052555;28;20056;-87
2021/01/11 02:27:46;;;;;;;6.85;5.63;;;4.50;99.90;;;;;;5031622;28;20396;-87
2021/01/11 02:30:30;;;;;;;6.18;5.57;;;4.50;99.90;;;;;;5034059;28;20052;-87
2021/01/11 02:33:06;;;;;;;5.82;5.00;;;4.50;99.90;;;;;;5034955;28;20071;-87
2021/01/11 02:35:57;;;;;;;6.07;5.47;;;4.50;99.90;;;;;;5035041;28;20391;-87
2021/01/11 02:38:25;;;;;;;5.97;5.35;;;4.50;99.90;;;;;;5061058;28;20391;-87
2021/01/11 02:40:51;;;;;;;6.43;5.43;;;4.50;99.90;;;;;;5031028;28;20044;-87
2021/01/11 02:43:18;;;;;;;6.30;5.38;;;4.50;99.90;;;;;;5033839;28;20048;-87
2021/01/11 02:45:44;;;;;;;6.53;5.82;;;4.50;99.90;;;;;;5035397;28;20470;-87
2021/01/11 02:48:25;;;;;;;6.10;5.50;;;4.50;99.90;;;;;;5051768;28;20052;-87
2021/01/11 02:51:09;;;;;;;7.15;5.70;;;4.50;99.90;;;;;;5025665;28;20483;-87
2021/01/11 02:53:59;;;;;;;6.45;5.85;;;4.50;99.90;;;;;;5050412;28;20053;-87
2021/01/11 02:56:55;;;;;;;7.53;5.72;;;4.50;99.90;;;;;;5030224;28;20137;-87
2021/01/11 02:59:44;;;;;;;5.57;5.03;;;4.40;99.90;;;;;;5021802;28;20049;-87
2021/01/11 03:02:13;;;;;;;5.57;5.00;;;4.40;99.90;;;;;;5028873;28;20044;-87
2021/01/11 03:04:40;;;;;;;;;;;4.40;99.90;;;;;;5018922;28;20634;-87
2021/01/11 03:07:08;;;;;;;5.65;4.63;;;4.50;99.90;;;;;;5023227;28;19921;-86
2021/01/11 03:09:41;;;;;;;5.03;4.22;;;4.50;99.90;;;;;;5026559;28;20059;-87
2021/01/11 03:12:12;;;;;;;5.25;4.38;;;4.50;99.90;;;;;;5021151;28;20051;-87
2021/01/11 03:14:39;;;;;;;6.63;5.45;;;4.50;99.90;;;;;;5023221;28;20686;-87
2021/01/11 03:17:06;;;;;;;5.30;4.80;;;4.50;99.90;;;;;;5024628;28;20395;-87
2021/01/11 03:19:33;;;;;;;6.82;5.38;;;4.50;99.90;;;;;;5052526;28;20463;-87
2021/01/11 03:22:00;;;;;;;7.78;5.07;;;4.50;99.90;;;;;;5032084;28;20181;-87
2021/01/11 03:24:26;;;;;;;5.25;4.40;;;4.50;99.90;;;;;;5034885;28;20249;-87
2021/01/11 03:26:57;;;;;;;5.68;4.95;;;4.50;99.90;;;;;;5033446;28;20052;-87
2021/01/11 03:29:23;;;;;;;5.80;5.18;;;4.50;99.90;;;;;;5033528;28;20057;-87
2021/01/11 03:31:49;;;;;;;5.93;5.03;;;4.60;99.90;;;;;;5027509;28;20045;-87
2021/01/11 03:34:16;;;;;;;5.00;4.47;;;4.60;99.90;;;;;;5033443;28;20076;-86
2021/01/11 03:36:45;;;;;;;4.97;4.47;;;4.60;99.90;;;;;;5050648;28;20064;-87
2021/01/11 03:39:12;;;;;;;5.68;5.00;;;4.60;99.90;;;;;;5032782;28;20049;-87
2021/01/11 03:41:41;;;;;;;5.32;4.82;;;4.60;99.90;;;;;;5027675;28;20144;-87
2021/01/11 03:44:08;;;;;;;5.97;4.97;;;4.60;99.90;;;;;;5021337;28;20048;-88
2021/01/11 03:46:35;;;;;;;6.60;4.45;;;4.60;99.90;;;;;;5039176;28;20391;-86
2021/01/11 03:49:03;;;;;;;5.50;4.55;;;4.60;99.90;;;;;;5022697;28;20045;-86
2021/01/11 03:51:29;;;;;;;5.13;4.63;;;4.60;99.90;;;;;;5022395;28;20049;-87
2021/01/11 03:53:56;;;;;;;5.72;5.18;;;4.50;99.90;;;;;;5022514;28;20046;-87
2021/01/11 03:56:22;;;;;;;5.55;4.97;;;4.50;99.90;;;;;;5025455;28;20080;-87
2021/01/11 03:58:49;;;;;;;6.28;5.35;;;4.60;99.90;;;;;;5020278;28;20053;-87
2021/01/11 04:01:16;;;;;;;5.20;4.63;;;4.60;99.90;;;;;;5026006;28;20195;-87
2021/01/11 04:03:42;;;;;;;5.65;4.90;;;4.60;99.90;;;;;;5029734;28;20065;-87
2021/01/11 04:06:09;;;;;;;4.97;4.47;;;4.70;99.90;;;;;;5029321;28;20383;-87
2021/01/11 04:08:35;;;;;;;4.93;4.50;;;4.70;99.90;;;;;;5023587;28;20095;-87
2021/01/11 04:11:02;;;;;;;8.93;4.72;;;4.70;99.90;;;;;;5051807;28;20107;-87
2021/01/11 04:13:29;;;;;;;5.65;5.05;;;4.70;99.90;;;;;;5032793;28;20586;-87
2021/01/11 04:15:57;;;;;;;5.25;4.55;;;4.70;99.90;;;;;;5033630;28;20099;-87
2021/01/11 04:18:24;;;;;;;4.95;4.45;;;4.80;99.90;;;;;;5052646;28;20049;-87
2021/01/11 04:20:51;;;;;;;5.38;4.32;;;4.80;99.90;;;;;;5033502;28;20057;-87
2021/01/11 04:23:18;;;;;;;4.93;4.43;;;4.80;99.90;;;;;;5029203;28;20045;-87
2021/01/11 04:25:44;;;;;;;4.82;4.13;;;4.80;99.90;;;;;;5029236;28;20053;-87
2021/01/11 04:28:11;;;;;;;4.95;4.45;;;4.80;99.90;;;;;;5033345;28;20395;-87
2021/01/11 04:30:37;;;;;;;5.38;4.63;;;4.70;99.90;;;;;;5019420;28;20451;-87
2021/01/11 04:33:04;;;;;;;4.85;4.30;;;4.70;99.90;;;;;;5021735;28;20072;-87
2021/01/11 04:35:31;;;;;;;4.97;4.47;;;4.70;99.90;;;;;;5021883;28;20396;-87
2021/01/11 04:37:58;;;;;;;5.00;4.53;;;4.70;99.90;;;;;;5023032;28;20060;-87
2021/01/11 04:40:24;;;;;;;5.55;5.05;;;4.70;99.90;;;;;;5018922;28;20119;-87
2021/01/11 04:42:55;;;;;;;6.50;4.95;;;4.70;99.90;;;;;;5019660;28;20053;-87
2021/01/11 04:45:22;;;;;;;6.03;4.93;;;4.70;99.90;;;;;;5054959;28;20057;-87
2021/01/11 04:47:59;;;;;;;5.30;4.70;;;4.70;99.90;;;;;;5051006;28;20076;-87
2021/01/11 04:50:27;;;;;;;5.20;4.50;;;4.70;99.90;;;;;;5019917;28;20521;-87
2021/01/11 04:52:54;;;;;;;6.03;4.75;;;4.70;99.90;;;;;;5022299;28;20059;-87
2021/01/11 04:55:22;;;;;;;6.07;4.65;;;4.80;99.90;;;;;;5026615;28;20061;-87
2021/01/11 04:57:56;;;;;;;5.80;4.32;;;4.70;99.90;;;;;;5034193;28;20497;-87
2021/01/11 05:00:28;;;;;;;5.80;5.00;;;4.80;99.90;;;;;;5031292;28;20130;-87
2021/01/11 05:03:06;;;;;;;5.07;4.57;;;4.70;99.90;;;;;;5036430;28;20069;-87
2021/01/11 05:05:35;;;;;;;6.18;4.70;;;4.80;99.90;;;;;;5036748;28;21224;-87
2021/01/11 05:08:02;;;;;;;4.88;4.38;;;4.80;99.90;;;;;;5035583;28;20048;-87
2021/01/11 05:10:30;;;;;;;5.00;4.45;;;4.80;99.90;;;;;;5055597;28;20052;-87
2021/01/11 05:12:57;;;;;;;;;;;4.70;99.90;;;;;;5037831;28;20445;-87
2021/01/11 05:15:26;;;;;;;5.32;4.53;;;4.80;99.90;;;;;;5069367;28;19936;-87
2021/01/11 05:17:53;;;;;;;;;;;4.70;99.90;;;;;;5032432;28;20060;-87
2021/01/11 05:20:25;;;;;;;6.22;4.25;;;4.70;99.90;;;;;;5034171;28;19929;-87
2021/01/11 05:22:53;;;;;;;5.72;4.30;;;4.70;99.90;;;;;;5036668;28;20048;-86
2021/01/11 05:25:22;;;;;;;5.57;4.60;;;4.70;99.90;;;;;;5039114;28;20064;-86
2021/01/11 05:28:08;;;;;;;5.95;4.55;;;4.70;99.90;;;;;;5022873;28;20180;-87
2021/01/11 05:30:39;;;;;;;5.55;4.93;;;4.70;99.90;;;;;;5055750;28;20423;-87
2021/01/11 05:33:07;;;;;;;6.22;4.90;;;4.70;99.90;;;;;;5054118;28;20559;-87
2021/01/11 05:35:34;;;;;;;6.75;4.53;;;4.80;99.90;;;;;;5030096;28;20049;-87
2021/01/11 05:38:01;;;;;;;4.97;4.38;;;4.80;99.90;;;;;;5023688;28;20045;-87
2021/01/11 05:40:29;;;;;;;5.30;4.47;;;4.80;99.90;;;;;;5060922;28;20100;-87
2021/01/11 05:42:58;;;;;;;5.22;4.68;;;4.80;99.90;;;;;;5029109;28;20467;-87
2021/01/11 05:45:30;;;;;;;6.20;4.07;;;4.80;99.90;;;;;;5025094;28;20049;-87
2021/01/11 05:48:11;;;;;;;5.35;4.47;;;4.80;99.90;;;;;;5024905;28;20045;-87
2021/01/11 05:50:43;;;;;;;4.78;4.22;;;4.80;99.90;;;;;;5027243;28;20057;-87
2021/01/11 05:53:17;;;;;;;5.93;4.13;;;4.80;99.90;;;;;;5034528;28;20482;-87
2021/01/11 05:55:44;;;;;;;5.47;3.60;;;4.90;99.90;;;;;;5029746;28;20057;-87
2021/01/11 05:58:11;;;;;;;5.55;4.20;;;4.80;99.90;;;;;;5035107;28;20052;-86
2021/01/11 06:00:39;;;;;;;5.60;4.15;;;4.80;99.90;;;;;;5038750;28;20060;-86
2021/01/11 06:03:07;;;;;;;6.87;4.07;;;4.90;99.90;;;;;;5035660;28;20037;-87
2021/01/11 06:05:34;;;;;;;5.57;3.67;;;4.90;99.90;;;;;;5034646;28;20387;-86
2021/01/11 06:08:02;;;;;;;4.70;4.05;;;4.90;99.90;;;;;;5028974;28;20103;-86
2021/01/11 06:10:29;;;;;;;7.30;4.28;;;4.90;99.90;;;;;;5033438;28;20056;-86
2021/01/11 06:12:56;;;;;;;5.22;4.35;;;4.90;99.90;;;;;;5035985;28;20064;-86
2021/01/11 06:15:25;;;;;;;5.65;4.05;;;4.90;99.90;;;;;;5022592;28;20053;-86
2021/01/11 06:17:53;;;;;;;5.10;4.47;;;4.90;99.90;;;;;;5025874;28;20053;-91
2021/01/11 06:20:21;;;;;;;4.38;3.95;;;4.90;99.90;;;;;;5024031;28;20053;-87
2021/01/11 06:22:51;;;;;;;4.90;4.40;;;4.90;99.90;;;;;;5023781;28;20463;-86
2021/01/11 06:25:17;;;;;;;4.63;4.07;;;4.90;99.90;;;;;;5020564;28;20052;-87
2021/01/11 06:27:57;;;;;;;11.02;8.30;;;4.90;99.90;;;;;;5023654;28;20044;-87
2021/01/11 06:30:40;;;;;;;12.80;9.32;;;5.00;99.90;;;;;;5019300;28;20064;-87
2021/01/11 06:33:10;;;;;;;10.68;7.35;;;4.90;99.90;;;;;;5019042;28;20052;-89
2021/01/11 06:35:48;;;;;;;7.65;5.93;;;4.90;99.90;;;;;;5029457;28;20379;-86
2021/01/11 06:38:20;;;;;;;8.05;5.32;;;4.90;99.90;;;;;;5032364;28;20099;-87
2021/01/11 06:41:02;;;;;;;6.40;5.40;;;4.90;99.90;;;;;;5034531;28;20041;-88
2021/01/11 06:43:50;;;;;;;6.78;5.50;;;4.90;99.90;;;;;;5043171;28;20059;-87
2021/01/11 06:46:29;;;;;;;7.27;6.30;;;4.90;99.90;;;;;;5034994;28;20053;-87
2021/01/11 06:48:58;;;;;;;5.68;4.53;;;4.90;99.90;;;;;;5067948;28;20057;-87
2021/01/11 06:51:39;;;;;;;7.53;5.38;;;4.90;99.90;;;;;;5029730;28;20783;-87
2021/01/11 06:54:16;;;;;;;7.00;5.15;;;4.90;99.90;;;;;;5031259;28;20118;-87
2021/01/11 06:56:43;;;;;;;7.57;4.70;;;4.90;99.90;;;;;;5014575;28;20053;-87
2021/01/11 06:59:17;;;;;;;6.50;4.95;;;4.90;99.90;;;;;;5032304;28;20057;-87
2021/01/11 07:01:45;;;;;;;5.82;5.03;;;4.90;99.90;;;;;;5011943;28;20061;-87
2021/01/11 07:04:36;;;;;;;5.85;4.70;;;4.90;99.90;;;;;;5015075;28;20505;-87
2021/01/11 07:07:03;;;;;;;6.32;4.65;;;4.90;99.90;;;;;;5030855;28;20041;-87
2021/01/11 07:09:30;;;;;;;7.95;5.40;;;4.90;99.90;;;;;;5017328;28;20536;-86
2021/01/11 07:12:04;;;;;;;6.82;5.28;;;4.90;99.90;;;;;;5006271;28;20054;-86
2021/01/11 07:14:57;;;;;;;6.63;5.28;;;4.90;99.90;;;;;;5006185;28;20056;-85
2021/01/11 07:17:41;;;;;;;7.85;5.63;;;4.90;99.90;;;;;;5011748;28;20060;-86
2021/01/11 07:20:10;;;;;;;6.82;4.82;;;4.90;99.90;;;;;;5011788;28;20049;-86
2021/01/11 07:22:38;;;;;;;7.30;5.47;;;4.90;99.90;;;;;;5001791;28;20057;-86
2021/01/11 07:25:24;;;;;;;5.47;4.97;;;4.90;99.90;;;;;;5028217;28;20057;-86
2021/01/11 07:27:59;;;;;;;6.53;5.40;;;4.90;99.90;;;;;;5014664;28;20052;-87
2021/01/11 07:30:30;;;;;;;6.03;5.43;;;4.90;99.90;;;;;;5012657;28;20099;-87
2021/01/11 07:32:57;;;;;;;7.22;5.50;;;4.90;99.90;;;;;;5012139;28;20049;-86
2021/01/11 07:35:24;;;;;;;8.63;5.68;;;4.90;99.90;;;;;;5013260;28;20049;-86
2021/01/11 07:37:50;;;;;;;6.68;5.28;;;4.90;99.90;;;;;;5024740;28;20495;-86
2021/01/11 07:40:17;;;;;;;6.20;5.15;;;4.90;99.90;;;;;;5012790;28;20167;-86
2021/01/11 07:42:43;;;;;;;6.20;5.43;;;5.00;99.90;;;;;;5016848;28;20080;-86
2021/01/11 07:45:12;;;;;;;10.60;6.25;;;5.00;99.90;;;;;;5028486;28;20471;-86
2021/01/11 07:47:51;;;;;;;6.70;5.40;;;4.90;99.90;;;;;;5011159;28;20049;-86
2021/01/11 07:50:18;;;;;;;6.03;5.10;;;5.00;99.90;;;;;;5007605;28;20057;-86
2021/01/11 07:52:46;;;;;;;6.03;4.80;;;5.00;99.90;;;;;;5010818;28;20140;-86
2021/01/11 07:55:13;;;;;;;9.38;5.22;;;5.00;99.90;;;;;;5030932;28;20060;-86
2021/01/11 07:57:40;;;;;;;7.90;4.93;;;5.00;99.90;;;;;;5019157;28;20065;-86
2021/01/11 08:00:11;;;;;;;6.45;4.60;;;5.00;99.90;;;;;;5021628;28;20049;-86
2021/01/11 08:02:39;;;;;;;5.40;4.90;;;5.00;99.90;;;;;;5022479;28;20053;-86
2021/01/11 08:05:20;;;;;;;5.78;5.18;;;5.00;99.90;;;;;;5022018;28;20048;-86
2021/01/11 08:07:54;;;;;;;6.18;4.53;;;5.00;99.90;;;;;;5020261;28;20045;-86
2021/01/11 08:10:24;;;;;;;6.75;4.95;;;5.00;99.90;;;;;;5055824;28;20053;-87
2021/01/11 08:12:50;;;;;;;7.95;5.20;;;5.00;99.90;;;;;;5023908;28;20053;-86
2021/01/11 08:15:20;;;;;;;5.85;5.10;;;5.00;99.90;;;;;;5025047;28;20053;-86
2021/01/11 08:17:46;;;;;;;6.32;5.22;;;5.00;99.90;;;;;;5019919;28;20042;-86
2021/01/11 08:20:23;;;;;;;5.85;5.25;;;5.00;99.90;;;;;;5022965;28;20442;-86
2021/01/11 08:22:49;;;;;;;7.95;5.95;;;5.00;99.90;;;;;;5033318;28;20045;-86
2021/01/11 08:25:16;;;;;;;6.85;5.97;;;5.00;99.90;;;;;;5033310;28;20053;-86
2021/01/11 08:27:49;;;;;;;6.72;5.93;;;5.00;99.90;;;;;;5033074;28;20124;-86
2021/01/11 08:30:23;;;;;;;7.18;5.05;;;5.00;99.90;;;;;;5032386;28;20045;-86
2021/01/11 08:32:50;;;;;;;6.05;5.10;;;5.00;99.90;;;;;;5035972;28;20048;-87
2021/01/11 08:35:20;;;;;;;7.40;5.57;;;5.00;99.90;;;;;;5037184;28;20474;-86
2021/01/11 08:37:47;;;;;;;5.32;4.80;;;5.10;99.90;;;;;;5036106;28;20049;-86
2021/01/11 08:40:25;;;;;;;5.78;4.75;;;5.10;99.90;;;;;;5036152;28;20486;-86
2021/01/11 08:42:52;;;;;;;6.80;5.40;;;5.10;99.90;;;;;;5052534;28;20057;-85
2021/01/11 08:45:38;;;;;;;7.32;4.80;;;5.10;99.90;;;;;;5036075;28;20445;-86
2021/01/11 08:48:14;;;;;;;5.50;4.55;;;5.10;99.90;;;;;;5026485;28;20050;-86
2021/01/11 08:50:58;;;;;;;5.18;4.68;;;5.10;99.90;;;;;;5036616;28;20056;-86
2021/01/11 08:53:33;;;;;;;6.65;4.60;;;5.20;99.90;;;;;;5038216;28;20550;-86
2021/01/11 08:56:09;;;;;;;5.50;4.75;;;5.20;99.90;;;;;;5060548;28;20503;-86
2021/01/11 08:58:53;;;;;;;5.53;4.63;;;5.20;99.90;;;;;;5057332;28;20091;-87
2021/01/11 09:01:24;;;;;;;7.70;4.95;;;5.30;99.90;;;;;;5042736;28;20056;-86
2021/01/11 09:03:54;;;;;;;7.10;5.07;;;5.30;99.90;;;;;;5038935;28;20048;-86
2021/01/11 09:06:40;;;;;;;5.18;4.13;;;5.30;99.90;;;;;;5043104;28;20053;-86
2021/01/11 09:09:15;;;;;;;7.25;5.35;;;5.30;99.90;;;;;;5028534;28;20068;-86
2021/01/11 09:11:43;;;;;;;5.28;4.63;;;5.40;99.90;;;;;;5038633;28;20049;-86
2021/01/11 09:14:14;;;;;;;4.97;4.35;;;5.40;99.90;;;;;;5036057;28;20049;-86
2021/01/11 09:16:46;;;;;;;5.95;4.60;;;5.50;99.90;;;;;;5039942;28;20060;-86
2021/01/11 09:19:19;;;;;;;7.85;5.28;;;5.50;99.90;;;;;;5062482;28;20064;-86
2021/01/11 09:22:01;;;;;;;6.97;6.15;;;5.60;99.90;;;;;;5037244;28;20061;-86
2021/01/11 09:24:28;;;;;;;7.57;6.30;;;5.60;99.90;;;;;;5066212;28;20049;-86
2021/01/11 09:26:56;;;;;;;7.47;5.70;;;5.60;99.90;;;;;;5038144;28;20052;-86
2021/01/11 09:29:23;;;;;;;9.65;5.78;;;5.70;99.90;;;;;;5042124;28;20395;-86
2021/01/11 09:31:50;;;;;;;6.32;5.72;;;5.70;99.90;;;;;;5035808;28;20045;-86
2021/01/11 09:34:17;;;;;;;6.25;5.53;;;5.70;99.90;;;;;;5036329;28;20712;-86
2021/01/11 09:36:45;;;;;;;6.15;5.55;;;5.80;99.90;;;;;;5036735;28;20057;-86
2021/01/11 09:39:13;;;;;;;7.07;5.13;;;5.90;99.90;;;;;;5024688;28;20090;-86
2021/01/11 09:41:45;;;;;;;5.57;4.10;;;5.90;99.90;;;;;;5026258;28;20041;-86
2021/01/11 09:44:11;;;;;;;3.60;3.00;;;5.90;99.90;;;;;;5024434;28;20048;-86
2021/01/11 09:46:52;;;;;;;3.90;2.55;;;6.00;99.90;;;;;;5022220;28;20430;-86
2021/01/11 09:49:19;;;;;;;2.42;2.00;;;6.00;99.90;;;;;;5040652;28;20052;-86
2021/01/11 09:51:46;;;;;;;2.05;1.38;;;6.10;99.90;;;;;;5045019;28;20102;-87
2021/01/11 09:54:13;;;;;;;2.75;1.45;;;6.20;99.90;;;;;;5043765;28;20048;-88
2021/01/11 09:56:40;;;;;;;2.55;1.55;;;6.20;99.90;;;;;;5041463;28;20040;-88
2021/01/11 09:59:07;;;;;;;4.53;3.20;;;6.30;99.90;;;;;;5037996;28;20102;-87
2021/01/11 10:01:45;;;;;;;5.25;3.70;;;6.40;99.90;;;;;;5040934;28;20044;-87
2021/01/11 10:04:13;;;;;;;6.07;4.22;;;6.40;99.90;;;;;;5037607;28;20479;-87
2021/01/11 10:06:47;;;;;;;5.18;2.97;;;6.50;99.90;;;;;;5043458;28;20097;-87
2021/01/11 10:09:17;;;;;;;6.15;4.38;;;6.60;99.90;;;;;;5058780;28;20049;-87
2021/01/11 10:11:55;;;;;;;4.50;3.30;;;6.70;99.90;;;;;;5039965;28;20040;-86
2021/01/11 10:14:21;;;;;;;3.05;2.20;;;6.70;99.90;;;;;;5040200;28;20056;-86
2021/01/11 10:16:52;;;;;;;5.25;1.85;;;6.80;99.90;;;;;;5061781;28;20048;-86
2021/01/11 10:19:28;;;;;;;2.95;1.70;;;6.90;99.90;;;;;;5042333;28;20128;-87
2021/01/11 10:21:59;;;;;;;5.97;2.10;;;7.00;99.90;;;;;;5040458;28;20132;-86
2021/01/11 10:24:26;;;;;;;5.40;2.55;;;7.10;99.90;;;;;;5031718;28;20045;-86
2021/01/11 10:26:53;;;;;;;8.32;2.30;;;7.10;99.90;;;;;;5040108;28;20091;-86
2021/01/11 10:29:23;;;;;;;2.78;1.20;;;7.20;99.90;;;;;;5039698;28;20057;-86
2021/01/11 10:31:49;;;;;;;4.85;1.95;;;7.30;99.90;;;;;;5038666;28;20045;-86
2021/01/11 10:34:18;;;;;;;1.67;1.10;;;7.40;99.90;;;;;;5040599;28;20098;-86
2021/01/11 10:36:47;;;;;;;2.58;1.33;;;7.40;99.90;;;;;;5044396;28;20113;-85
2021/01/11 10:39:16;;;;;;;5.32;4.93;;;7.50;99.90;;;;;;5040437;28;20071;-87
2021/01/11 10:41:42;;;;;;;2.53;2.10;;;7.60;99.90;;;;;;5041389;28;20121;-87
2021/01/11 10:44:09;;;;;;;2.78;2.00;;;7.70;99.90;;;;;;5034468;28;20049;-86
2021/01/11 10:46:36;;;;;;;2.75;1.42;;;7.70;99.90;;;;;;5041930;28;20041;-86
2021/01/11 10:49:03;;;;;;;3.10;1.10;;;7.80;99.90;;;;;;5039424;28;20045;-86
2021/01/11 10:51:33;;;;;;;2.25;1.20;;;7.90;99.90;;;;;;5062956;28;20393;-86
2021/01/11 10:54:01;;;;;;;1.85;1.25;;;7.90;99.90;;;;;;5034979;28;20378;-86
2021/01/11 10:56:27;;;;;;;2.83;1.00;;;8.00;99.90;;;;;;5068182;28;20059;-86
2021/01/11 10:58:54;;;;;;;2.05;1.13;;;8.10;99.90;;;;;;5059173;28;20044;-86
2021/01/11 11:01:20;;;;;;;2.33;1.00;;;8.10;99.90;;;;;;5038857;28;20395;-86
2021/01/11 11:03:47;;;;;;;1.67;1.08;;;8.10;99.90;;;;;;5044525;28;20048;-86
2021/01/11 11:06:14;;;;;;;2.45;1.13;;;8.20;99.90;;;;;;5036553;28;20051;-86
2021/01/11 11:08:41;;;;;;;2.88;1.30;;;8.20;99.90;;;;;;5035714;28;20079;-86
2021/01/11 11:11:07;;;;;;;3.63;1.00;;;8.20;99.90;;;;;;5041356;28;20071;-86
2021/01/11 11:13:34;;;;;;;2.05;1.50;;;8.20;99.90;;;;;;5039749;28;20045;-86
2021/01/11 11:16:05;;;;;;;2.47;1.50;;;8.30;99.90;;;;;;5042453;28;20094;-86
2021/01/11 11:18:34;;;;;;;2.53;1.58;;;8.40;99.90;;;;;;5065488;28;20317;-87
2021/01/11 11:21:03;;;;;;;3.83;2.63;;;8.40;99.90;;;;;;5024273;28;20049;-87
2021/01/11 11:23:30;;;;;;;3.70;2.25;;;8.40;99.90;;;;;;5032463;28;20054;-86
2021/01/11 11:25:57;;;;;;;2.83;1.70;;;8.50;99.90;;;;;;5024750;28;20045;-86
2021/01/11 11:28:23;;;;;;;3.30;1.50;;;8.50;99.90;;;;;;5019277;28;20051;-86
2021/01/11 11:30:50;;;;;;;3.78;2.20;;;8.60;99.90;;;;;;5022509;28;20548;-87
2021/01/11 11:33:16;;;;;;;3.33;2.20;;;8.60;99.90;;;;;;5023291;28;20053;-86
2021/01/11 11:35:43;;;;;;;2.47;1.85;;;8.70;99.90;;;;;;5044429;28;20049;-87
2021/01/11 11:38:09;;;;;;;3.17;1.75;;;8.70;99.90;;;;;;5047529;28;20045;-87
2021/01/11 11:40:37;;;;;;;4.55;2.30;;;8.80;99.90;;;;;;5021925;28;20045;-87
2021/01/11 11:43:23;;;;;;;19.95;11.23;;;8.80;99.90;;;;;;5033054;28;20067;-86
2021/01/11 11:45:50;;;;;;;6.43;3.72;;;8.80;99.90;;;;;;5032415;28;20049;-87
2021/01/11 11:48:19;;;;;;;5.20;2.65;;;8.90;99.90;;;;;;5037454;28;20090;-92
2021/01/11 11:50:46;;;;;;;3.90;1.80;;;8.90;99.90;;;;;;5033943;28;20064;-87
2021/01/11 11:53:14;;;;;;;2.25;1.20;;;8.90;99.90;;;;;;5042221;28;20044;-86
2021/01/11 11:55:41;;;;;;;2.55;2.35;;;8.90;99.90;;;;;;5033425;28;20483;-86
2021/01/11 11:58:07;;;;;;;2.65;1.30;;;9.00;99.90;;;;;;5043098;28;20057;-86
2021/01/11 12:00:34;;;;;;;3.80;2.50;;;9.00;99.90;;;;;;5036557;28;20391;-86
2021/01/11 12:03:14;;;;;;;5.68;1.83;;;9.00;99.90;;;;;;5034516;28;20045;-86
2021/01/11 12:05:41;;;;;;;2.72;1.10;;;9.00;99.90;;;;;;5033212;28;20053;-86
2021/01/11 12:08:08;;;;;;;2.08;0.70;;;9.00;99.90;;;;;;5029872;28;20068;-86
2021/01/11 12:10:34;;;;;;;2.35;1.20;;;9.00;99.90;;;;;;5032648;28;20059;-86
2021/01/11 12:13:01;;;;;;;3.00;1.67;;;9.00;99.90;;;;;;5035418;28;20037;-86
2021/01/11 12:15:27;;;;;;;6.93;2.33;;;9.10;99.90;;;;;;5033461;28;20515;-86
2021/01/11 12:17:54;;;;;;;5.47;3.00;;;9.10;99.90;;;;;;5066586;28;20040;-86
2021/01/11 12:20:21;;;;;;;5.03;2.72;;;9.10;99.90;;;;;;5033794;28;20111;-86
2021/01/11 12:22:51;;;;;;;5.95;2.90;;;9.20;99.90;;;;;;5029466;28;20056;-86
2021/01/11 12:25:18;;;;;;;6.25;2.72;;;9.20;99.90;;;;;;5047368;28;20049;-87
2021/01/11 12:27:44;;;;;;;6.65;2.00;;;9.20;99.90;;;;;;5070693;28;20132;-86
2021/01/11 12:30:11;;;;;;;8.02;2.05;;;9.20;99.90;;;;;;5052371;28;20115;-86
2021/01/11 12:32:40;;;;;;;2.80;1.17;;;9.20;99.90;;;;;;5035150;28;20483;-86
2021/01/11 12:35:07;;;;;;;;;;;9.20;99.90;;;;;;5035926;28;20088;-86
2021/01/11 12:37:34;;;;;;;2.38;0.90;;;9.20;99.90;;;;;;5036963;28;19928;-86
2021/01/11 12:40:00;;;;;;;2.92;0.98;;;9.20;99.90;;;;;;5037116;28;20106;-86
2021/01/11 12:42:27;;;;;;;2.03;0.80;;;9.20;99.90;;;;;;5034758;28;20502;-86
2021/01/11 12:44:53;;;;;;;5.45;1.05;;;9.20;99.90;;;;;;5036632;28;20103;-86
2021/01/11 12:47:19;;;;;;;3.72;0.70;;;9.20;99.90;;;;;;5036959;28;20051;-86
2021/01/11 12:49:48;;;;;;;1.80;0.80;;;9.20;99.90;;;;;;5036838;28;20048;-86
2021/01/11 12:52:14;;;;;;;2.10;0.57;;;9.20;99.90;;;;;;5037169;28;20061;-86
2021/01/11 12:54:41;;;;;;;2.30;0.55;;;9.20;99.90;;;;;;5038345;28;20296;-86
2021/01/11 12:57:08;;;;;;;1.65;0.57;;;9.30;99.90;;;;;;5035886;28;20045;-86
2021/01/11 12:59:35;;;;;;;3.20;0.77;;;9.30;99.90;;;;;;5036206;28;20049;-86
2021/01/11 13:02:02;;;;;;;1.63;0.77;;;9.30;99.90;;;;;;5036235;28;20045;-87
2021/01/11 13:04:30;;;;;;;2.75;0.85;;;9.30;99.90;;;;;;5036900;28;20133;-87
2021/01/11 13:06:56;;;;;;;4.80;1.02;;;9.30;99.90;;;;;;5039993;28;20538;-86
2021/01/11 13:09:23;;;;;;;5.32;1.20;;;9.30;99.90;;;;;;5025857;28;20140;-86
2021/01/11 13:11:51;;;;;;;3.08;1.00;;;9.30;99.90;;;;;;5025233;28;20128;-86
2021/01/11 13:14:19;;;;;;;1.50;0.90;;;9.30;99.90;;;;;;5024608;28;20057;-86